Watseka, Illinois
Current Conditions -  °F | °C
As of 7:55 AM on Friday 24 Oct 2014 (Local Time) from KIKK Reporting Station
Haze Haze  
Wind Chill: 47°   Ceiling: 4400
Heat Index: 47°   Visibility: 5mi
Dew Point: 45°   Wind: 0mph
Humidity: 94%   Direction: NA
Pressure: 30.09"   Gusts: NA
Location:  40.78°N, 87.74°W
Report Text: KIKK 241255Z AUTO 00000KT 5SM BR SCT027 SCT034 OVC044 08/07 A3009 RMK AO2 T00820073
Loading
Personal Weather Stations






























Interactive Weather Map
Tropical Storm Tracking
New forecast layout! Learn more

10-Day Weather Forecast

Advertisements
Track Severe Weather on mobile